createdAt,value
2018-07-30T00:01:19.809Z,21.80
2018-07-30T00:03:48.453Z,21.80
2018-07-30T00:06:17.049Z,21.80
2018-07-30T00:08:45.678Z,21.80
2018-07-30T00:11:14.272Z,21.80
2018-07-30T00:13:42.958Z,21.80
2018-07-30T00:16:11.571Z,21.80
2018-07-30T00:18:40.302Z,21.70
2018-07-30T00:21:08.962Z,21.80
2018-07-30T00:23:37.748Z,21.80
2018-07-30T00:26:06.479Z,21.80
2018-07-30T00:28:35.592Z,21.80
2018-07-30T00:31:04.338Z,21.70
2018-07-30T00:33:32.954Z,21.70
2018-07-30T00:36:01.585Z,21.70
2018-07-30T00:38:30.241Z,21.70
2018-07-30T00:40:58.882Z,21.60
2018-07-30T00:43:27.508Z,21.60
2018-07-30T00:45:56.096Z,21.60
2018-07-30T00:48:24.671Z,21.60
2018-07-30T00:50:53.484Z,21.60
2018-07-30T00:53:22.121Z,21.60
2018-07-30T00:58:19.009Z,21.60
2018-07-30T01:00:47.711Z,21.50
2018-07-30T01:03:16.434Z,21.50
2018-07-30T01:05:45.169Z,21.50
2018-07-30T01:08:13.807Z,21.40
2018-07-30T01:10:42.433Z,21.40
2018-07-30T01:13:11.073Z,21.40
2018-07-30T01:15:39.662Z,21.30
2018-07-30T01:18:08.454Z,21.30
2018-07-30T01:20:37.136Z,21.20
2018-07-30T01:23:05.877Z,21.20
2018-07-30T01:25:34.594Z,21.10
2018-07-30T01:28:03.324Z,21.10
2018-07-30T01:30:35.169Z,21.00
2018-07-30T01:33:03.957Z,21.10
2018-07-30T01:38:00.987Z,20.80
2018-07-30T01:40:29.593Z,20.70
2018-07-30T01:42:58.184Z,20.60
2018-07-30T01:45:26.851Z,20.60
2018-07-30T01:47:55.479Z,20.60
2018-07-30T01:50:24.150Z,20.60
2018-07-30T01:52:53.535Z,20.60
2018-07-30T01:55:22.255Z,20.60
2018-07-30T01:57:50.845Z,20.50
2018-07-30T02:00:19.472Z,20.50
2018-07-30T02:02:48.101Z,20.40
2018-07-30T02:05:16.740Z,20.40
2018-07-30T02:07:45.342Z,20.40
2018-07-30T02:10:13.988Z,20.30
2018-07-30T02:12:42.613Z,20.20
2018-07-30T02:15:13.485Z,20.00
2018-07-30T02:17:42.141Z,20.00
2018-07-30T02:20:10.795Z,20.00
2018-07-30T02:22:39.444Z,20.00
2018-07-30T02:25:08.702Z,19.90
2018-07-30T02:27:37.361Z,19.90
2018-07-30T02:30:07.329Z,19.80
2018-07-30T02:32:36.040Z,19.80
2018-07-30T02:35:05.777Z,19.70
2018-07-30T02:37:34.730Z,19.70
2018-07-30T02:40:03.532Z,19.60
2018-07-30T02:42:32.196Z,19.70
2018-07-30T02:45:00.874Z,19.70
2018-07-30T02:47:29.537Z,19.70
2018-07-30T02:49:58.138Z,19.60
2018-07-30T02:54:55.049Z,19.70
2018-07-30T02:57:23.696Z,19.70
2018-07-30T02:59:52.353Z,19.70
2018-07-30T03:02:21.023Z,19.80
2018-07-30T03:07:17.873Z,19.80
2018-07-30T03:09:46.476Z,19.80
2018-07-30T03:12:15.139Z,19.80
2018-07-30T03:14:43.898Z,19.80
2018-07-30T03:17:12.549Z,19.90
2018-07-30T03:19:41.221Z,19.80
2018-07-30T03:22:09.869Z,19.90
2018-07-30T03:24:38.541Z,19.80
2018-07-30T03:27:07.188Z,19.80
2018-07-30T03:29:35.910Z,19.90
2018-07-30T03:32:04.597Z,19.90
2018-07-30T03:34:33.377Z,19.90
2018-07-30T03:37:02.019Z,20.00
2018-07-30T03:39:30.678Z,20.00
2018-07-30T03:41:59.272Z,19.90
2018-07-30T03:44:27.945Z,19.90
2018-07-30T03:46:56.560Z,19.90
2018-07-30T03:49:25.171Z,19.90
2018-07-30T03:51:53.773Z,19.80
2018-07-30T03:54:22.524Z,19.80
2018-07-30T03:56:51.253Z,19.70
2018-07-30T03:59:20.445Z,19.70
2018-07-30T04:01:49.095Z,19.70
2018-07-30T04:04:17.705Z,19.70
2018-07-30T04:06:46.322Z,19.70
2018-07-30T04:09:14.929Z,19.60
2018-07-30T04:11:43.542Z,19.60
2018-07-30T04:14:12.151Z,19.60
2018-07-30T04:16:47.120Z,19.50
2018-07-30T04:19:16.013Z,19.50
2018-07-30T04:21:44.603Z,19.40
2018-07-30T04:24:13.269Z,19.40
2018-07-30T04:26:42.354Z,19.40
2018-07-30T04:29:10.942Z,19.30
2018-07-30T04:31:39.542Z,19.30
2018-07-30T04:34:08.229Z,19.30
2018-07-30T04:36:37.433Z,19.30
2018-07-30T04:39:10.422Z,19.30
2018-07-30T04:41:39.101Z,19.30
2018-07-30T04:44:08.037Z,19.30
2018-07-30T04:46:37.286Z,19.30
2018-07-30T04:49:05.978Z,19.30
2018-07-30T04:51:35.676Z,19.30
2018-07-30T04:54:04.746Z,19.40
2018-07-30T04:56:33.638Z,19.50
2018-07-30T04:59:02.305Z,19.50
2018-07-30T05:01:31.073Z,19.50
2018-07-30T05:03:59.707Z,19.60
2018-07-30T05:06:28.285Z,19.60
2018-07-30T05:08:56.908Z,19.70
2018-07-30T05:11:25.663Z,19.70
2018-07-30T05:13:54.218Z,19.70
2018-07-30T05:16:22.821Z,19.80
2018-07-30T05:18:51.505Z,19.80
2018-07-30T05:21:20.159Z,19.80
2018-07-30T05:23:48.793Z,19.80
2018-07-30T05:26:17.456Z,19.90
2018-07-30T05:28:46.061Z,19.90
2018-07-30T05:31:14.682Z,19.90
2018-07-30T05:33:43.335Z,20.00
2018-07-30T05:36:14.364Z,20.00
2018-07-30T05:38:43.161Z,20.00
2018-07-30T05:41:11.844Z,20.10
2018-07-30T05:43:40.529Z,20.10
2018-07-30T05:46:09.677Z,20.10
2018-07-30T05:48:38.376Z,20.20
2018-07-30T05:51:07.167Z,20.30
2018-07-30T05:53:35.894Z,20.40
2018-07-30T05:56:04.974Z,20.40
2018-07-30T05:58:33.741Z,20.50
2018-07-30T06:01:05.368Z,20.60
2018-07-30T06:03:34.027Z,20.80
2018-07-30T06:06:02.702Z,20.90
2018-07-30T06:08:31.457Z,21.00
2018-07-30T06:11:00.272Z,21.00
2018-07-30T06:13:28.861Z,21.10
2018-07-30T06:15:57.525Z,21.20
2018-07-30T06:18:26.198Z,21.40
2018-07-30T06:20:54.954Z,21.40
2018-07-30T06:23:23.638Z,21.50
2018-07-30T06:25:52.334Z,21.60
2018-07-30T06:28:21.015Z,21.70
2018-07-30T06:30:49.662Z,21.70
2018-07-30T06:33:18.297Z,21.80
2018-07-30T06:35:46.915Z,21.90
2018-07-30T06:38:15.532Z,22.10
2018-07-30T06:40:44.164Z,22.30
2018-07-30T06:43:12.814Z,22.40
2018-07-30T06:45:41.408Z,22.50
2018-07-30T06:48:10.126Z,22.60
2018-07-30T06:50:38.721Z,22.60
2018-07-30T06:53:07.380Z,22.70
2018-07-30T06:55:35.973Z,22.80
2018-07-30T06:58:04.617Z,22.80
2018-07-30T07:03:01.629Z,22.90
2018-07-30T07:05:30.279Z,22.90
2018-07-30T07:07:59.318Z,22.90
2018-07-30T07:10:28.108Z,23.10
2018-07-30T07:12:56.845Z,23.10
2018-07-30T07:15:25.533Z,23.10
2018-07-30T07:17:54.514Z,23.20
2018-07-30T07:20:23.184Z,23.30
2018-07-30T07:22:51.841Z,23.30
2018-07-30T07:25:20.477Z,23.40
2018-07-30T07:27:49.193Z,23.40
2018-07-30T07:32:46.064Z,23.50
2018-07-30T07:35:15.474Z,23.60
2018-07-30T07:37:44.142Z,23.70
2018-07-30T07:40:13.068Z,23.90
2018-07-30T07:42:41.845Z,24.00
2018-07-30T07:45:10.663Z,24.00
2018-07-30T07:47:39.356Z,24.20
2018-07-30T07:50:08.413Z,24.30
2018-07-30T07:52:36.981Z,24.40
2018-07-30T07:55:05.921Z,24.40
2018-07-30T07:57:34.577Z,24.60
2018-07-30T08:00:03.365Z,24.70
2018-07-30T08:02:32.022Z,24.80
2018-07-30T08:05:00.616Z,25.10
2018-07-30T08:07:29.894Z,25.20
2018-07-30T08:09:58.791Z,25.30
2018-07-30T08:12:27.474Z,25.40
2018-07-30T08:14:56.149Z,25.50
2018-07-30T08:17:24.962Z,25.60
2018-07-30T08:19:53.631Z,25.60
2018-07-30T08:22:22.392Z,25.80
2018-07-30T08:24:50.969Z,25.70
2018-07-30T08:27:19.671Z,25.70
2018-07-30T08:29:48.342Z,25.70
2018-07-30T08:32:17.089Z,25.70
2018-07-30T08:34:46.052Z,25.70
2018-07-30T08:37:14.745Z,25.80
2018-07-30T08:39:43.601Z,25.80
2018-07-30T08:42:12.280Z,25.80
2018-07-30T08:44:40.992Z,25.90
2018-07-30T08:47:09.633Z,25.90
2018-07-30T08:49:38.265Z,25.90
2018-07-30T08:52:07.013Z,26.00
2018-07-30T08:54:35.680Z,26.00
2018-07-30T08:57:04.370Z,26.10
2018-07-30T08:59:33.024Z,26.10
2018-07-30T09:02:01.659Z,26.10
2018-07-30T09:04:30.411Z,26.10
2018-07-30T09:06:59.214Z,26.10
2018-07-30T09:09:28.194Z,26.30
2018-07-30T09:11:57.067Z,26.40
2018-07-30T09:14:25.941Z,26.50
2018-07-30T09:16:54.670Z,26.60
2018-07-30T09:19:23.340Z,26.70
2018-07-30T09:21:51.966Z,26.80
2018-07-30T09:24:20.563Z,27.00
2018-07-30T09:26:49.265Z,27.20
2018-07-30T09:29:17.821Z,27.30
2018-07-30T09:31:46.527Z,27.40
2018-07-30T09:34:15.186Z,27.50
2018-07-30T09:36:43.818Z,27.80
2018-07-30T09:39:12.959Z,27.90
2018-07-30T09:41:41.777Z,27.90
2018-07-30T09:44:10.450Z,28.00
2018-07-30T09:46:39.117Z,28.20
2018-07-30T09:54:04.404Z,28.60
2018-07-30T09:56:34.159Z,28.70
2018-07-30T09:59:02.993Z,28.60
2018-07-30T10:01:31.789Z,28.50
2018-07-30T10:04:01.193Z,28.60
2018-07-30T10:06:29.845Z,28.70
2018-07-30T10:08:58.527Z,28.90
2018-07-30T10:11:27.234Z,28.90
2018-07-30T10:13:56.832Z,29.20
2018-07-30T10:16:25.473Z,29.30
2018-07-30T10:18:54.258Z,29.40
2018-07-30T10:21:22.976Z,29.70
2018-07-30T10:23:51.708Z,29.90
2018-07-30T10:26:20.332Z,30.00
2018-07-30T10:28:48.980Z,30.20
2018-07-30T10:31:17.684Z,30.40
2018-07-30T10:33:46.444Z,30.50
2018-07-30T10:36:15.218Z,30.60
2018-07-30T10:38:44.336Z,30.70
2018-07-30T10:41:13.249Z,30.80
2018-07-30T10:43:41.877Z,30.90
2018-07-30T10:46:10.645Z,31.00
2018-07-30T10:48:39.249Z,31.00
2018-07-30T10:51:07.947Z,31.20
2018-07-30T10:53:36.598Z,31.40
2018-07-30T10:56:05.657Z,31.50
2018-07-30T10:58:34.257Z,31.50
2018-07-30T11:01:02.921Z,31.60
2018-07-30T11:03:31.573Z,31.70
2018-07-30T11:06:00.153Z,31.90
2018-07-30T11:08:28.818Z,32.00
2018-07-30T11:10:57.453Z,32.00
2018-07-30T11:13:26.178Z,32.00
2018-07-30T11:15:55.034Z,32.00
2018-07-30T11:18:23.730Z,32.20
2018-07-30T11:20:52.353Z,32.40
2018-07-30T11:23:21.023Z,32.60
2018-07-30T11:25:49.857Z,32.80
2018-07-30T11:28:18.605Z,33.00
2018-07-30T11:30:47.482Z,33.10
2018-07-30T11:33:16.136Z,33.20
2018-07-30T11:35:44.787Z,33.20
2018-07-30T11:38:13.477Z,33.20
2018-07-30T11:40:42.134Z,33.20
2018-07-30T11:43:10.843Z,33.20
2018-07-30T11:45:39.707Z,33.30
2018-07-30T11:48:08.393Z,33.40
2018-07-30T11:50:37.032Z,33.70
2018-07-30T11:53:05.913Z,33.60
2018-07-30T11:55:34.558Z,33.80
2018-07-30T11:58:03.261Z,33.90
2018-07-30T12:00:32.833Z,34.10
2018-07-30T12:03:01.443Z,34.30
2018-07-30T12:05:30.070Z,34.30
2018-07-30T12:07:58.700Z,34.40
2018-07-30T12:10:27.367Z,34.50
2018-07-30T12:12:56.016Z,34.50
2018-07-30T12:15:24.761Z,34.60
2018-07-30T12:17:53.377Z,34.60
2018-07-30T12:20:22.037Z,34.20
2018-07-30T12:22:50.633Z,34.10
2018-07-30T12:25:19.229Z,33.80
2018-07-30T12:27:47.890Z,33.50
2018-07-30T12:30:16.634Z,33.20
2018-07-30T12:32:45.270Z,33.10
2018-07-30T12:35:13.898Z,32.80
2018-07-30T12:37:42.666Z,33.00
2018-07-30T12:40:11.465Z,33.10
2018-07-30T12:42:41.264Z,33.30
2018-07-30T12:45:09.877Z,33.40
2018-07-30T12:47:38.509Z,33.70
2018-07-30T12:50:07.193Z,33.90
2018-07-30T12:52:35.831Z,34.00
2018-07-30T12:55:04.570Z,34.30
2018-07-30T12:57:33.210Z,34.30
2018-07-30T13:00:01.883Z,34.40
2018-07-30T13:02:30.494Z,34.70
2018-07-30T13:04:59.141Z,34.90
2018-07-30T13:07:27.877Z,35.00
2018-07-30T13:09:56.617Z,35.50
2018-07-30T13:12:25.322Z,35.50
2018-07-30T13:14:54.053Z,35.60
2018-07-30T13:17:22.661Z,35.80
2018-07-30T13:19:51.314Z,36.10
2018-07-30T13:22:19.961Z,36.40
2018-07-30T13:24:48.581Z,36.20
2018-07-30T13:27:17.292Z,36.30
2018-07-30T13:29:45.889Z,36.20
2018-07-30T13:32:14.587Z,36.50
2018-07-30T13:34:43.236Z,36.40
2018-07-30T13:37:11.897Z,36.30
2018-07-30T13:39:40.542Z,36.00
2018-07-30T13:42:09.223Z,36.40
2018-07-30T13:44:37.932Z,36.40
2018-07-30T13:47:06.641Z,36.50
2018-07-30T13:49:35.957Z,36.60
2018-07-30T13:52:05.461Z,36.80
2018-07-30T13:54:34.169Z,36.80
2018-07-30T13:59:31.026Z,36.40
2018-07-30T14:01:59.701Z,36.40
2018-07-30T14:04:28.629Z,36.00
2018-07-30T14:06:57.289Z,35.70
2018-07-30T14:09:25.977Z,35.30
2018-07-30T14:11:54.717Z,34.80
2018-07-30T14:14:23.432Z,34.50
2018-07-30T14:16:52.144Z,34.40
2018-07-30T14:19:20.789Z,34.20
2018-07-30T14:21:49.716Z,34.00
2018-07-30T14:24:18.438Z,33.70
2018-07-30T14:26:47.053Z,33.50
2018-07-30T14:29:15.714Z,33.30
2018-07-30T14:31:44.361Z,33.30
2018-07-30T14:34:13.179Z,33.40
2018-07-30T14:36:52.426Z,33.80
2018-07-30T14:39:21.009Z,34.50
2018-07-30T14:41:49.655Z,35.10
2018-07-30T14:44:18.335Z,35.60
2018-07-30T14:46:46.977Z,36.00
2018-07-30T14:49:15.669Z,36.40
2018-07-30T14:51:44.615Z,36.40
2018-07-30T14:54:13.266Z,36.40
2018-07-30T14:56:41.881Z,36.40
2018-07-30T14:59:10.660Z,36.00
2018-07-30T15:01:39.246Z,35.80
2018-07-30T15:04:08.012Z,35.40
2018-07-30T15:06:36.916Z,34.80
2018-07-30T15:09:09.186Z,34.40
2018-07-30T15:11:38.346Z,34.00
2018-07-30T15:14:07.005Z,33.70
2018-07-30T15:16:35.872Z,33.40
2018-07-30T15:19:04.957Z,33.10
2018-07-30T15:21:33.597Z,33.00
2018-07-30T15:24:02.248Z,32.70
2018-07-30T15:26:31.029Z,32.50
2018-07-30T15:28:59.713Z,32.40
2018-07-30T15:31:28.413Z,32.40
2018-07-30T15:33:57.154Z,32.20
2018-07-30T15:36:25.857Z,32.30
2018-07-30T15:38:54.553Z,32.50
2018-07-30T15:41:23.250Z,32.50
2018-07-30T15:43:51.863Z,32.50
2018-07-30T15:46:20.694Z,32.50
2018-07-30T15:48:49.359Z,32.50
2018-07-30T15:51:17.976Z,32.60
2018-07-30T15:53:46.593Z,32.60
2018-07-30T15:56:15.221Z,32.70
2018-07-30T15:58:43.858Z,32.80
2018-07-30T16:01:12.517Z,33.10
2018-07-30T16:03:41.191Z,33.20
2018-07-30T16:06:09.853Z,33.20
2018-07-30T16:08:38.477Z,33.10
2018-07-30T16:11:07.330Z,33.00
2018-07-30T16:13:35.980Z,33.00
2018-07-30T16:16:04.672Z,33.00
2018-07-30T16:18:33.310Z,33.20
2018-07-30T16:21:02.036Z,33.50
2018-07-30T16:23:30.702Z,33.50
2018-07-30T16:25:59.529Z,33.30
2018-07-30T16:28:28.237Z,33.20
2018-07-30T16:30:57.083Z,33.10
2018-07-30T16:33:25.789Z,33.00
2018-07-30T16:35:54.525Z,33.00
2018-07-30T16:38:47.975Z,33.10
2018-07-30T16:41:16.685Z,33.20
2018-07-30T16:43:45.349Z,33.30
2018-07-30T16:46:13.967Z,33.20
2018-07-30T16:48:42.634Z,33.20
2018-07-30T16:51:11.312Z,33.20
2018-07-30T16:53:39.974Z,33.10
2018-07-30T16:56:08.686Z,33.30
2018-07-30T16:58:37.324Z,33.20
2018-07-30T17:01:06.125Z,33.30
2018-07-30T17:03:34.849Z,33.40
2018-07-30T17:06:03.483Z,33.40
2018-07-30T17:08:32.087Z,33.30
2018-07-30T17:11:00.697Z,33.30
2018-07-30T17:13:29.526Z,33.10
2018-07-30T17:15:58.268Z,33.00
2018-07-30T17:18:27.084Z,32.90
2018-07-30T17:20:55.806Z,32.70
2018-07-30T17:23:24.785Z,32.60
2018-07-30T17:25:53.476Z,32.50
2018-07-30T17:28:22.107Z,32.30
2018-07-30T17:30:50.774Z,32.30
2018-07-30T17:33:19.426Z,32.10
2018-07-30T17:35:48.081Z,32.00
2018-07-30T17:38:16.659Z,31.90
2018-07-30T17:40:45.480Z,31.70
2018-07-30T17:43:14.181Z,31.50
2018-07-30T17:45:42.875Z,31.40
2018-07-30T17:48:11.529Z,31.30
2018-07-30T17:50:40.221Z,31.20
2018-07-30T17:53:08.904Z,31.10
2018-07-30T17:55:37.461Z,31.00
2018-07-30T17:58:06.103Z,30.90
2018-07-30T18:00:34.684Z,30.70
2018-07-30T18:03:03.309Z,30.60
2018-07-30T18:05:31.938Z,30.60
2018-07-30T18:08:00.505Z,30.50
2018-07-30T18:10:29.228Z,30.10
2018-07-30T18:12:57.968Z,29.90
2018-07-30T18:15:26.806Z,29.70
2018-07-30T18:17:55.533Z,29.50
2018-07-30T18:20:24.324Z,29.30
2018-07-30T18:22:53.664Z,29.10
2018-07-30T18:25:23.353Z,29.00
2018-07-30T18:27:52.057Z,28.90
2018-07-30T18:30:20.657Z,28.80
2018-07-30T18:32:49.242Z,28.60
2018-07-30T18:35:17.929Z,28.60
2018-07-30T18:37:46.532Z,28.50
2018-07-30T18:40:15.194Z,28.40
2018-07-30T18:42:43.861Z,28.30
2018-07-30T18:45:12.485Z,28.20
2018-07-30T18:47:41.127Z,28.10
2018-07-30T18:50:09.705Z,28.00
2018-07-30T18:52:38.365Z,27.90
2018-07-30T18:55:07.018Z,27.70
2018-07-30T18:57:35.669Z,27.70
2018-07-30T19:00:05.105Z,27.60
2018-07-30T19:02:33.768Z,27.50
2018-07-30T19:05:02.577Z,27.50
2018-07-30T19:07:31.212Z,27.30
2018-07-30T19:10:03.029Z,27.20
2018-07-30T19:12:31.672Z,27.00
2018-07-30T19:15:00.329Z,27.00
2018-07-30T19:17:28.988Z,26.90
2018-07-30T19:19:57.697Z,26.80
2018-07-30T19:22:26.663Z,26.70
2018-07-30T19:24:55.445Z,26.50
2018-07-30T19:27:24.134Z,26.30
2018-07-30T19:29:52.760Z,26.20
2018-07-30T19:32:21.392Z,26.10
2018-07-30T19:34:49.980Z,26.00
2018-07-30T19:37:19.438Z,25.70
2018-07-30T19:39:48.158Z,25.60
2018-07-30T19:42:16.893Z,25.40
2018-07-30T19:44:45.585Z,25.20
2018-07-30T19:47:14.297Z,25.10
2018-07-30T19:49:42.925Z,25.10
2018-07-30T19:52:11.610Z,24.90
2018-07-30T19:54:40.797Z,24.80
2018-07-30T19:57:09.720Z,24.70
2018-07-30T19:59:38.349Z,24.60
2018-07-30T20:02:07.008Z,24.60
2018-07-30T20:04:36.600Z,24.40
2018-07-30T20:07:05.305Z,24.40
2018-07-30T20:09:33.989Z,24.40
2018-07-30T20:12:02.603Z,24.40
2018-07-30T20:14:31.198Z,24.30
2018-07-30T20:17:00.133Z,24.30
2018-07-30T20:19:28.880Z,24.20
2018-07-30T20:21:57.548Z,24.20
2018-07-30T20:24:26.279Z,24.20
2018-07-30T20:26:54.987Z,24.20
2018-07-30T20:29:23.647Z,24.10
2018-07-30T20:31:52.314Z,24.00
2018-07-30T20:36:49.198Z,23.90
2018-07-30T20:39:17.829Z,23.90
2018-07-30T20:41:46.544Z,23.80
2018-07-30T20:44:15.189Z,23.70
2018-07-30T20:46:43.817Z,23.60
2018-07-30T20:49:12.516Z,23.60
2018-07-30T20:51:41.149Z,23.50
2018-07-30T20:54:09.826Z,23.50
2018-07-30T20:56:38.445Z,23.50
2018-07-30T20:59:07.097Z,23.40
2018-07-30T21:01:35.724Z,23.40
2018-07-30T21:04:04.341Z,23.30
2018-07-30T21:06:32.964Z,23.30
2018-07-30T21:09:01.610Z,23.30
2018-07-30T21:11:30.272Z,23.20
2018-07-30T21:13:58.906Z,23.20
2018-07-30T21:16:27.696Z,23.20
2018-07-30T21:18:56.422Z,23.20
2018-07-30T21:21:25.119Z,23.10
2018-07-30T21:23:53.779Z,23.10
2018-07-30T21:26:22.509Z,23.10
2018-07-30T21:28:51.117Z,23.10
2018-07-30T21:31:19.801Z,23.00
2018-07-30T21:33:48.496Z,23.10
2018-07-30T21:36:17.109Z,23.10
2018-07-30T21:38:45.715Z,23.10
2018-07-30T21:41:14.354Z,23.10
2018-07-30T21:43:43.064Z,23.00
2018-07-30T21:46:11.813Z,23.00
2018-07-30T21:48:40.597Z,22.90
2018-07-30T21:51:09.189Z,22.90
2018-07-30T21:53:38.133Z,22.80
2018-07-30T21:56:06.993Z,22.80
2018-07-30T21:58:35.628Z,22.80
2018-07-30T22:01:04.296Z,22.70
2018-07-30T22:03:32.924Z,22.70
2018-07-30T22:06:01.838Z,22.70
2018-07-30T22:08:30.496Z,22.70
2018-07-30T22:10:59.162Z,22.70
2018-07-30T22:13:27.829Z,22.70
2018-07-30T22:15:56.580Z,22.80
2018-07-30T22:18:25.247Z,22.80
2018-07-30T22:20:53.882Z,22.80
2018-07-30T22:23:22.564Z,22.80
2018-07-30T22:25:51.165Z,22.80
2018-07-30T22:28:19.773Z,22.80
2018-07-30T22:30:48.413Z,22.90
2018-07-30T22:33:16.982Z,22.80
2018-07-30T22:35:45.629Z,22.80
2018-07-30T22:38:14.257Z,22.80
2018-07-30T22:40:42.960Z,22.70
2018-07-30T22:43:11.653Z,22.70
2018-07-30T22:45:40.481Z,22.70
2018-07-30T22:48:09.183Z,22.70
2018-07-30T22:50:37.809Z,22.70
2018-07-30T22:53:06.417Z,22.70
2018-07-30T22:55:35.073Z,22.70
2018-07-30T22:58:03.665Z,22.70
2018-07-30T23:00:32.333Z,22.70
2018-07-30T23:03:01.029Z,22.70
2018-07-30T23:05:29.644Z,22.70
2018-07-30T23:07:58.482Z,22.60
2018-07-30T23:10:27.272Z,22.60
2018-07-30T23:12:56.013Z,22.60
2018-07-30T23:15:24.770Z,22.60
2018-07-30T23:17:53.527Z,22.50
2018-07-30T23:20:22.153Z,22.50
2018-07-30T23:22:50.845Z,22.50
2018-07-30T23:25:19.481Z,22.40
2018-07-30T23:27:48.069Z,22.30
2018-07-30T23:30:16.660Z,22.30
2018-07-30T23:32:45.277Z,22.30
2018-07-30T23:35:13.879Z,22.30
2018-07-30T23:37:42.569Z,22.20
2018-07-30T23:40:11.223Z,22.10
2018-07-30T23:42:39.836Z,22.10
2018-07-30T23:45:08.513Z,22.10
2018-07-30T23:47:37.100Z,22.10
2018-07-30T23:50:05.858Z,22.10
2018-07-30T23:52:34.470Z,22.00
2018-07-30T23:55:03.293Z,22.00
2018-07-30T23:57:31.984Z,21.90
